Auburn, Illinois
Current Conditions -  °F | °C
As of 8:09 AM on Thursday 29 Jan 2015 (Local Time) from KSPI Reporting Station
Overcast Overcast  
Wind Chill: -2°   Ceiling: 1500
Heat Index:   Visibility: 9mi
Dew Point:   Wind: 20mph
Humidity: 79%   Direction: 300°WNW
Pressure: 29.97"   Gusts: 30mph
Location:  39.59°N, 89.75°W
Report Text: KSPI 291409Z 30017G26KT 9SM OVC015 03/00 A2997 RMK AO2 PK WND 30026/1404 T00330000
Loading
Personal Weather Stations






























Interactive Weather Map New forecast layout! Learn more

10-Day Weather Forecast

Advertisements
Track Severe Weather on mobile